Blue Oscar[1 Sailor) — FAA3730 — position and weather

sailwx.info

Track history (hours):
 
Tides and Currents Weather Stations Pressure Air Temp Water Temp Dewpoint Dewpoint Depression Visibility Wind Speed Wind Dir Waves Ship Positions

Blue Oscar[1 Sailor)

Last reported at 2017-Sep-21 16:34 UTC. Time now 2017-Sep-24 03:34 UTC.
Position N 46°09' W 001°09'.

Length 6 m.

Type: Sailing vessel. MMSI: 227115650.

Date/timePositionNaut miles runAvg speedWind from/ knotsBaromVisibWave heightAir tempDewpointWater temp
2017-Sep-21 16:34N 46°09' W 001°09'0 0.0
2017-Sep-21 16:31N 46°09' W 001°09'0 0.0
2017-Sep-21 16:01N 46°09' W 001°09'0 0.0
2017-Sep-21 15:31N 46°09' W 001°09'0 0.0
2017-Sep-21 14:55N 46°09' W 001°09'0 0.0
2017-Sep-21 14:31N 46°09' W 001°09'  
2017-Sep-17 14:50N 46°09' W 001°09'0 0.0
2017-Sep-17 14:20N 46°09' W 001°09'0 0.5
2017-Sep-17 13:57N 46°09' W 001°09'2 3.3
2017-Sep-17 13:29N 46°09' W 001°11'25 5.7
2017-Sep-17 09:06N 46°20' W 001°44'3 7.6
2017-Sep-17 08:42N 46°21' W 001°48'92 7.1
2017-Sep-16 19:43N 47°27' W 003°21'2 8.2
2017-Sep-16 19:29N 47°29' W 003°21'4 7.5
2017-Sep-16 19:00N 47°32' W 003°23'2 4.8
2017-Sep-16 18:30N 47°35' W 003°24'1 2.3
2017-Sep-16 18:00N 47°36' W 003°24'0 0.8
2017-Sep-16 17:30N 47°36' W 003°24'1 2.2
2017-Sep-16 17:00N 47°37' W 003°23'2 3.1
2017-Sep-16 16:30N 47°38' W 003°22'2 4.0
2017-Sep-16 16:00N 47°40' W 003°22'2 4.5
2017-Sep-16 15:30N 47°43' W 003°22'1 1.8
2017-Sep-16 14:59N 47°44' W 003°22'0 0.0
2017-Sep-16 14:29N 47°44' W 003°22'0 0.0
2017-Sep-14 12:02N 47°44' W 003°22'0 0.1
2017-Sep-14 11:59N 47°44' W 003°22'0 0.0
2017-Sep-14 11:29N 47°44' W 003°22'0 0.0
2017-Sep-14 10:59N 47°44' W 003°22'0 0.0
2017-Sep-14 10:29N 47°44' W 003°22'0 0.0
2017-Sep-14 10:00N 47°44' W 003°22'0 0.0
2017-Sep-14 09:30N 47°44' W 003°22'0 0.0
2017-Sep-14 09:00N 47°44' W 003°22'0 0.0
2017-Sep-14 08:30N 47°44' W 003°22'0 0.0
2017-Sep-13 09:16N 47°44' W 003°22'0 0.0
2017-Sep-13 08:58N 47°44' W 003°22'0 0.0
2017-Sep-13 08:28N 47°44' W 003°22'0 0.0
2017-Sep-13 07:58N 47°44' W 003°22'0 0.0
2017-Sep-12 15:51N 47°44' W 003°22'0 0.0
2017-Sep-12 15:30N 47°44' W 003°22'0 0.0
2017-Sep-12 15:00N 47°44' W 003°22'0 0.0
2017-Sep-12 14:30N 47°44' W 003°22'0 0.0
2017-Sep-12 14:00N 47°44' W 003°22'0 0.0
2017-Sep-12 13:30N 47°44' W 003°22'0 0.0
2017-Sep-12 12:59N 47°44' W 003°22'0 0.0
2017-Sep-12 12:29N 47°44' W 003°22'0 0.0
2017-Sep-12 11:59N 47°44' W 003°22'0 0.0
2017-Sep-12 11:29N 47°44' W 003°22'0 0.0
2017-Sep-12 10:59N 47°44' W 003°22'0 0.0
2017-Sep-12 10:29N 47°44' W 003°22'0 0.0
2017-Sep-12 09:59N 47°44' W 003°22'0 0.0
2017-Sep-12 09:29N 47°44' W 003°22'0 0.0
2017-Sep-12 08:59N 47°44' W 003°22'  
Track history (hours):
 
Tides and Currents Weather Stations Pressure Air Temp Water Temp Dewpoint Dewpoint Depression Visibility Wind Speed Wind Dir Waves Ship Positions

Blue Oscar[1 Sailor)

Last reported at 2017-Sep-21 16:34 UTC. Time now 2017-Sep-24 03:34 UTC.
Position N 46°09' W 001°09'.

Length 6 m.

Type: Sailing vessel. MMSI: 227115650.

Date/timePositionNaut miles runAvg speedWind from/ knotsBaromVisibWave heightAir tempDewpointWater temp
2017-Sep-21 16:34N 46°09' W 001°09'0 0.0
2017-Sep-21 16:31N 46°09' W 001°09'0 0.0
2017-Sep-21 16:01N 46°09' W 001°09'0 0.0
2017-Sep-21 15:31N 46°09' W 001°09'0 0.0
2017-Sep-21 14:55N 46°09' W 001°09'0 0.0
2017-Sep-21 14:31N 46°09' W 001°09'  
2017-Sep-17 14:50N 46°09' W 001°09'0 0.0
2017-Sep-17 14:20N 46°09' W 001°09'0 0.5
2017-Sep-17 13:57N 46°09' W 001°09'2 3.3
2017-Sep-17 13:29N 46°09' W 001°11'25 5.7
2017-Sep-17 09:06N 46°20' W 001°44'3 7.6
2017-Sep-17 08:42N 46°21' W 001°48'92 7.1
2017-Sep-16 19:43N 47°27' W 003°21'2 8.2
2017-Sep-16 19:29N 47°29' W 003°21'4 7.5
2017-Sep-16 19:00N 47°32' W 003°23'2 4.8
2017-Sep-16 18:30N 47°35' W 003°24'1 2.3
2017-Sep-16 18:00N 47°36' W 003°24'0 0.8
2017-Sep-16 17:30N 47°36' W 003°24'1 2.2
2017-Sep-16 17:00N 47°37' W 003°23'2 3.1
2017-Sep-16 16:30N 47°38' W 003°22'2 4.0
2017-Sep-16 16:00N 47°40' W 003°22'2 4.5
2017-Sep-16 15:30N 47°43' W 003°22'1 1.8
2017-Sep-16 14:59N 47°44' W 003°22'0 0.0
2017-Sep-16 14:29N 47°44' W 003°22'0 0.0
2017-Sep-14 12:02N 47°44' W 003°22'0 0.1
2017-Sep-14 11:59N 47°44' W 003°22'0 0.0
2017-Sep-14 11:29N 47°44' W 003°22'0 0.0
2017-Sep-14 10:59N 47°44' W 003°22'0 0.0
2017-Sep-14 10:29N 47°44' W 003°22'0 0.0
2017-Sep-14 10:00N 47°44' W 003°22'0 0.0
2017-Sep-14 09:30N 47°44' W 003°22'0 0.0
2017-Sep-14 09:00N 47°44' W 003°22'0 0.0
2017-Sep-14 08:30N 47°44' W 003°22'0 0.0
2017-Sep-13 09:16N 47°44' W 003°22'0 0.0
2017-Sep-13 08:58N 47°44' W 003°22'0 0.0
2017-Sep-13 08:28N 47°44' W 003°22'0 0.0
2017-Sep-13 07:58N 47°44' W 003°22'0 0.0
2017-Sep-12 15:51N 47°44' W 003°22'0 0.0
2017-Sep-12 15:30N 47°44' W 003°22'0 0.0
2017-Sep-12 15:00N 47°44' W 003°22'0 0.0
2017-Sep-12 14:30N 47°44' W 003°22'0 0.0
2017-Sep-12 14:00N 47°44' W 003°22'0 0.0
2017-Sep-12 13:30N 47°44' W 003°22'0 0.0
2017-Sep-12 12:59N 47°44' W 003°22'0 0.0
2017-Sep-12 12:29N 47°44' W 003°22'0 0.0
2017-Sep-12 11:59N 47°44' W 003°22'0 0.0
2017-Sep-12 11:29N 47°44' W 003°22'0 0.0
2017-Sep-12 10:59N 47°44' W 003°22'0 0.0
2017-Sep-12 10:29N 47°44' W 003°22'0 0.0
2017-Sep-12 09:59N 47°44' W 003°22'0 0.0
2017-Sep-12 09:29N 47°44' W 003°22'0 0.0
2017-Sep-12 08:59N 47°44' W 003°22'  

Dump ship's entire track history